sensor_id;sensor_type;location;lat;lon;timestamp;P1;durP1;ratioP1;P2;durP2;ratioP2
74660;SDS011;63191;39.566;2.654;2023-06-24T00:02:17;13.60;;;6.20;;
74660;SDS011;63191;39.566;2.654;2023-06-24T00:04:43;13.30;;;5.90;;
74660;SDS011;63191;39.566;2.654;2023-06-24T00:07:08;9.90;;;4.80;;
74660;SDS011;63191;39.566;2.654;2023-06-24T00:09:34;9.10;;;4.90;;
74660;SDS011;63191;39.566;2.654;2023-06-24T00:12:01;9.70;;;4.70;;
74660;SDS011;63191;39.566;2.654;2023-06-24T00:14:27;9.00;;;4.10;;
74660;SDS011;63191;39.566;2.654;2023-06-24T00:16:54;9.90;;;4.60;;
74660;SDS011;63191;39.566;2.654;2023-06-24T00:19:25;12.40;;;4.70;;
74660;SDS011;63191;39.566;2.654;2023-06-24T00:21:53;9.70;;;4.20;;
74660;SDS011;63191;39.566;2.654;2023-06-24T00:24:20;10.90;;;4.90;;
74660;SDS011;63191;39.566;2.654;2023-06-24T00:26:53;10.70;;;5.00;;
74660;SDS011;63191;39.566;2.654;2023-06-24T00:29:20;8.90;;;4.40;;
74660;SDS011;63191;39.566;2.654;2023-06-24T00:31:46;10.90;;;4.30;;
74660;SDS011;63191;39.566;2.654;2023-06-24T00:34:12;11.40;;;4.40;;
74660;SDS011;63191;39.566;2.654;2023-06-24T00:36:38;9.20;;;3.80;;
74660;SDS011;63191;39.566;2.654;2023-06-24T00:39:04;9.40;;;3.80;;
74660;SDS011;63191;39.566;2.654;2023-06-24T00:41:32;10.10;;;4.20;;
74660;SDS011;63191;39.566;2.654;2023-06-24T00:43:58;10.00;;;4.30;;
74660;SDS011;63191;39.566;2.654;2023-06-24T00:46:25;9.30;;;4.50;;
74660;SDS011;63191;39.566;2.654;2023-06-24T00:48:53;9.20;;;4.40;;
74660;SDS011;63191;39.566;2.654;2023-06-24T00:51:22;10.60;;;4.50;;
74660;SDS011;63191;39.566;2.654;2023-06-24T00:53:55;8.80;;;4.20;;
74660;SDS011;63191;39.566;2.654;2023-06-24T00:56:26;9.30;;;4.30;;
74660;SDS011;63191;39.566;2.654;2023-06-24T00:58:55;8.60;;;4.30;;
74660;SDS011;63191;39.566;2.654;2023-06-24T01:01:23;9.30;;;4.20;;
74660;SDS011;63191;39.566;2.654;2023-06-24T01:03:49;10.60;;;4.80;;
74660;SDS011;63191;39.566;2.654;2023-06-24T01:06:16;10.80;;;4.60;;
74660;SDS011;63191;39.566;2.654;2023-06-24T01:08:41;11.00;;;5.50;;
74660;SDS011;63191;39.566;2.654;2023-06-24T01:11:07;9.70;;;4.50;;
74660;SDS011;63191;39.566;2.654;2023-06-24T01:13:33;8.60;;;4.50;;
74660;SDS011;63191;39.566;2.654;2023-06-24T01:16:05;9.30;;;4.40;;
74660;SDS011;63191;39.566;2.654;2023-06-24T01:18:43;9.50;;;4.30;;
74660;SDS011;63191;39.566;2.654;2023-06-24T01:21:27;9.50;;;4.20;;
74660;SDS011;63191;39.566;2.654;2023-06-24T01:24:26;8.30;;;3.60;;
74660;SDS011;63191;39.566;2.654;2023-06-24T01:27:24;9.50;;;4.10;;
74660;SDS011;63191;39.566;2.654;2023-06-24T01:33:10;9.50;;;4.50;;
74660;SDS011;63191;39.566;2.654;2023-06-24T01:35:41;11.50;;;5.70;;
74660;SDS011;63191;39.566;2.654;2023-06-24T01:38:15;14.90;;;4.90;;
74660;SDS011;63191;39.566;2.654;2023-06-24T01:40:51;9.30;;;4.30;;
74660;SDS011;63191;39.566;2.654;2023-06-24T01:43:18;10.00;;;4.70;;
74660;SDS011;63191;39.566;2.654;2023-06-24T01:45:50;8.60;;;4.10;;
74660;SDS011;63191;39.566;2.654;2023-06-24T01:48:28;9.90;;;4.60;;
74660;SDS011;63191;39.566;2.654;2023-06-24T01:51:01;11.10;;;4.90;;
74660;SDS011;63191;39.566;2.654;2023-06-24T01:53:34;10.20;;;4.50;;
74660;SDS011;63191;39.566;2.654;2023-06-24T01:56:07;11.30;;;4.60;;
74660;SDS011;63191;39.566;2.654;2023-06-24T01:58:35;12.10;;;4.50;;
74660;SDS011;63191;39.566;2.654;2023-06-24T02:01:02;12.60;;;4.60;;
74660;SDS011;63191;39.566;2.654;2023-06-24T02:03:29;12.70;;;4.10;;
74660;SDS011;63191;39.566;2.654;2023-06-24T02:05:57;13.00;;;4.50;;
74660;SDS011;63191;39.566;2.654;2023-06-24T02:08:24;12.90;;;4.90;;
74660;SDS011;63191;39.566;2.654;2023-06-24T02:10:52;14.40;;;5.10;;
74660;SDS011;63191;39.566;2.654;2023-06-24T02:13:19;8.20;;;4.60;;
74660;SDS011;63191;39.566;2.654;2023-06-24T02:15:47;11.30;;;4.70;;
74660;SDS011;63191;39.566;2.654;2023-06-24T02:18:15;12.60;;;4.90;;
74660;SDS011;63191;39.566;2.654;2023-06-24T02:20:43;24.90;;;5.80;;
74660;SDS011;63191;39.566;2.654;2023-06-24T02:23:11;26.00;;;6.00;;
74660;SDS011;63191;39.566;2.654;2023-06-24T02:25:37;23.40;;;6.00;;
74660;SDS011;63191;39.566;2.654;2023-06-24T02:28:07;19.40;;;5.50;;
74660;SDS011;63191;39.566;2.654;2023-06-24T02:30:37;15.80;;;5.70;;
74660;SDS011;63191;39.566;2.654;2023-06-24T02:33:03;15.00;;;6.20;;
74660;SDS011;63191;39.566;2.654;2023-06-24T02:35:30;21.20;;;6.90;;
74660;SDS011;63191;39.566;2.654;2023-06-24T02:37:56;16.10;;;5.30;;
74660;SDS011;63191;39.566;2.654;2023-06-24T02:40:21;11.30;;;5.00;;
74660;SDS011;63191;39.566;2.654;2023-06-24T02:42:47;12.70;;;5.50;;
74660;SDS011;63191;39.566;2.654;2023-06-24T02:45:13;10.50;;;4.90;;
74660;SDS011;63191;39.566;2.654;2023-06-24T02:47:41;11.70;;;4.80;;
74660;SDS011;63191;39.566;2.654;2023-06-24T02:50:10;11.90;;;5.00;;
74660;SDS011;63191;39.566;2.654;2023-06-24T02:52:36;13.30;;;5.00;;
74660;SDS011;63191;39.566;2.654;2023-06-24T02:55:03;12.10;;;5.10;;
74660;SDS011;63191;39.566;2.654;2023-06-24T02:57:30;22.70;;;6.50;;
74660;SDS011;63191;39.566;2.654;2023-06-24T02:59:57;27.50;;;6.60;;
74660;SDS011;63191;39.566;2.654;2023-06-24T03:02:23;20.20;;;5.60;;
74660;SDS011;63191;39.566;2.654;2023-06-24T03:04:53;12.90;;;5.50;;
74660;SDS011;63191;39.566;2.654;2023-06-24T03:07:19;13.30;;;5.00;;
74660;SDS011;63191;39.566;2.654;2023-06-24T03:09:46;16.60;;;5.50;;
74660;SDS011;63191;39.566;2.654;2023-06-24T03:12:12;9.10;;;4.60;;
74660;SDS011;63191;39.566;2.654;2023-06-24T03:14:38;9.10;;;4.80;;
74660;SDS011;63191;39.566;2.654;2023-06-24T03:17:03;11.60;;;5.20;;
74660;SDS011;63191;39.566;2.654;2023-06-24T03:19:29;12.10;;;5.10;;
74660;SDS011;63191;39.566;2.654;2023-06-24T03:21:55;11.80;;;5.10;;
74660;SDS011;63191;39.566;2.654;2023-06-24T03:24:21;11.10;;;5.30;;
74660;SDS011;63191;39.566;2.654;2023-06-24T03:26:47;8.70;;;4.40;;
74660;SDS011;63191;39.566;2.654;2023-06-24T03:29:13;10.00;;;4.80;;
74660;SDS011;63191;39.566;2.654;2023-06-24T03:31:39;12.60;;;4.50;;
74660;SDS011;63191;39.566;2.654;2023-06-24T03:34:10;10.80;;;4.80;;
74660;SDS011;63191;39.566;2.654;2023-06-24T03:36:36;11.60;;;5.20;;
74660;SDS011;63191;39.566;2.654;2023-06-24T03:39:04;11.40;;;5.30;;
74660;SDS011;63191;39.566;2.654;2023-06-24T03:41:31;11.20;;;4.90;;
74660;SDS011;63191;39.566;2.654;2023-06-24T03:43:56;14.20;;;5.10;;
74660;SDS011;63191;39.566;2.654;2023-06-24T03:46:22;11.10;;;5.10;;
74660;SDS011;63191;39.566;2.654;2023-06-24T03:48:49;13.20;;;5.40;;
74660;SDS011;63191;39.566;2.654;2023-06-24T03:51:15;10.50;;;5.60;;
74660;SDS011;63191;39.566;2.654;2023-06-24T03:53:41;10.40;;;5.30;;
74660;SDS011;63191;39.566;2.654;2023-06-24T03:56:07;10.90;;;5.50;;
74660;SDS011;63191;39.566;2.654;2023-06-24T03:58:33;9.70;;;4.90;;
74660;SDS011;63191;39.566;2.654;2023-06-24T04:01:00;10.80;;;5.20;;
74660;SDS011;63191;39.566;2.654;2023-06-24T04:03:27;10.10;;;5.70;;
74660;SDS011;63191;39.566;2.654;2023-06-24T04:05:54;13.90;;;5.50;;
74660;SDS011;63191;39.566;2.654;2023-06-24T04:08:22;11.40;;;5.40;;
74660;SDS011;63191;39.566;2.654;2023-06-24T04:10:51;13.50;;;5.30;;
74660;SDS011;63191;39.566;2.654;2023-06-24T04:13:16;10.60;;;4.40;;
74660;SDS011;63191;39.566;2.654;2023-06-24T04:15:43;9.10;;;4.60;;
74660;SDS011;63191;39.566;2.654;2023-06-24T04:18:09;9.10;;;4.60;;
74660;SDS011;63191;39.566;2.654;2023-06-24T04:20:34;10.10;;;4.60;;
74660;SDS011;63191;39.566;2.654;2023-06-24T04:23:01;9.90;;;4.40;;
74660;SDS011;63191;39.566;2.654;2023-06-24T04:25:26;11.60;;;4.60;;
74660;SDS011;63191;39.566;2.654;2023-06-24T04:27:52;12.40;;;5.00;;
74660;SDS011;63191;39.566;2.654;2023-06-24T04:30:18;8.60;;;4.20;;
74660;SDS011;63191;39.566;2.654;2023-06-24T04:32:43;11.80;;;4.90;;
74660;SDS011;63191;39.566;2.654;2023-06-24T04:35:09;11.30;;;5.60;;
74660;SDS011;63191;39.566;2.654;2023-06-24T04:37:35;13.00;;;7.10;;
74660;SDS011;63191;39.566;2.654;2023-06-24T04:40:00;14.30;;;6.80;;
74660;SDS011;63191;39.566;2.654;2023-06-24T04:42:26;12.10;;;6.00;;
74660;SDS011;63191;39.566;2.654;2023-06-24T04:44:53;12.30;;;5.10;;
74660;SDS011;63191;39.566;2.654;2023-06-24T04:47:19;11.40;;;4.80;;
74660;SDS011;63191;39.566;2.654;2023-06-24T04:49:45;13.10;;;5.00;;
74660;SDS011;63191;39.566;2.654;2023-06-24T04:52:11;10.60;;;4.40;;
74660;SDS011;63191;39.566;2.654;2023-06-24T04:54:37;10.00;;;4.10;;
74660;SDS011;63191;39.566;2.654;2023-06-24T04:57:07;9.80;;;4.10;;
74660;SDS011;63191;39.566;2.654;2023-06-24T04:59:35;10.00;;;4.40;;
74660;SDS011;63191;39.566;2.654;2023-06-24T05:02:03;10.50;;;4.60;;
74660;SDS011;63191;39.566;2.654;2023-06-24T05:04:29;11.10;;;4.90;;
74660;SDS011;63191;39.566;2.654;2023-06-24T05:06:54;10.40;;;4.40;;
74660;SDS011;63191;39.566;2.654;2023-06-24T05:09:20;10.60;;;4.20;;
74660;SDS011;63191;39.566;2.654;2023-06-24T05:11:46;12.00;;;4.70;;
74660;SDS011;63191;39.566;2.654;2023-06-24T05:14:12;9.10;;;4.90;;
74660;SDS011;63191;39.566;2.654;2023-06-24T05:16:40;10.10;;;4.10;;
74660;SDS011;63191;39.566;2.654;2023-06-24T05:19:06;9.60;;;4.30;;
74660;SDS011;63191;39.566;2.654;2023-06-24T05:21:32;10.10;;;4.40;;
74660;SDS011;63191;39.566;2.654;2023-06-24T05:23:57;10.00;;;4.40;;
74660;SDS011;63191;39.566;2.654;2023-06-24T05:26:23;8.80;;;4.30;;
74660;SDS011;63191;39.566;2.654;2023-06-24T05:28:49;6.90;;;3.80;;
74660;SDS011;63191;39.566;2.654;2023-06-24T05:31:14;7.70;;;3.60;;
74660;SDS011;63191;39.566;2.654;2023-06-24T05:33:40;7.50;;;4.10;;
74660;SDS011;63191;39.566;2.654;2023-06-24T05:36:06;8.00;;;4.10;;
74660;SDS011;63191;39.566;2.654;2023-06-24T05:38:31;7.80;;;4.30;;
74660;SDS011;63191;39.566;2.654;2023-06-24T05:40:57;8.40;;;4.80;;
74660;SDS011;63191;39.566;2.654;2023-06-24T05:43:23;8.00;;;4.30;;
74660;SDS011;63191;39.566;2.654;2023-06-24T05:45:50;9.70;;;4.30;;
74660;SDS011;63191;39.566;2.654;2023-06-24T05:48:16;9.50;;;4.80;;
74660;SDS011;63191;39.566;2.654;2023-06-24T05:50:42;8.70;;;4.50;;
74660;SDS011;63191;39.566;2.654;2023-06-24T05:53:08;8.70;;;4.80;;
74660;SDS011;63191;39.566;2.654;2023-06-24T05:55:33;10.20;;;5.00;;
74660;SDS011;63191;39.566;2.654;2023-06-24T05:57:59;9.60;;;5.50;;
74660;SDS011;63191;39.566;2.654;2023-06-24T06:00:25;10.30;;;5.10;;
74660;SDS011;63191;39.566;2.654;2023-06-24T06:02:51;9.60;;;5.00;;
74660;SDS011;63191;39.566;2.654;2023-06-24T06:05:16;8.90;;;5.60;;
74660;SDS011;63191;39.566;2.654;2023-06-24T06:07:42;9.00;;;5.20;;
74660;SDS011;63191;39.566;2.654;2023-06-24T06:10:09;8.20;;;5.00;;
74660;SDS011;63191;39.566;2.654;2023-06-24T06:12:36;8.50;;;4.90;;
74660;SDS011;63191;39.566;2.654;2023-06-24T06:15:02;8.00;;;5.30;;
74660;SDS011;63191;39.566;2.654;2023-06-24T06:17:28;8.60;;;5.50;;
74660;SDS011;63191;39.566;2.654;2023-06-24T06:19:54;9.60;;;6.10;;
74660;SDS011;63191;39.566;2.654;2023-06-24T06:22:19;10.70;;;5.70;;
74660;SDS011;63191;39.566;2.654;2023-06-24T06:24:45;10.00;;;5.90;;
74660;SDS011;63191;39.566;2.654;2023-06-24T06:27:11;8.40;;;5.80;;
74660;SDS011;63191;39.566;2.654;2023-06-24T06:29:40;9.70;;;5.90;;
74660;SDS011;63191;39.566;2.654;2023-06-24T06:32:06;8.20;;;4.90;;
74660;SDS011;63191;39.566;2.654;2023-06-24T06:34:33;9.10;;;5.40;;
74660;SDS011;63191;39.566;2.654;2023-06-24T06:36:58;11.10;;;5.10;;
74660;SDS011;63191;39.566;2.654;2023-06-24T06:39:24;8.20;;;5.00;;
74660;SDS011;63191;39.566;2.654;2023-06-24T06:41:50;10.90;;;5.80;;
74660;SDS011;63191;39.566;2.654;2023-06-24T06:44:15;8.30;;;5.00;;
74660;SDS011;63191;39.566;2.654;2023-06-24T06:46:41;9.10;;;5.20;;
74660;SDS011;63191;39.566;2.654;2023-06-24T06:49:07;10.40;;;4.60;;
74660;SDS011;63191;39.566;2.654;2023-06-24T06:51:32;13.40;;;5.30;;
74660;SDS011;63191;39.566;2.654;2023-06-24T06:53:59;8.60;;;5.00;;
74660;SDS011;63191;39.566;2.654;2023-06-24T06:56:25;10.90;;;4.70;;
74660;SDS011;63191;39.566;2.654;2023-06-24T06:58:52;10.20;;;4.80;;
74660;SDS011;63191;39.566;2.654;2023-06-24T07:01:18;10.00;;;4.80;;
74660;SDS011;63191;39.566;2.654;2023-06-24T07:03:45;10.20;;;5.10;;
74660;SDS011;63191;39.566;2.654;2023-06-24T07:06:10;9.70;;;5.20;;
74660;SDS011;63191;39.566;2.654;2023-06-24T07:08:36;10.60;;;5.00;;
74660;SDS011;63191;39.566;2.654;2023-06-24T07:11:02;11.30;;;4.40;;
74660;SDS011;63191;39.566;2.654;2023-06-24T07:13:28;8.20;;;4.30;;
74660;SDS011;63191;39.566;2.654;2023-06-24T07:15:54;10.10;;;4.90;;
74660;SDS011;63191;39.566;2.654;2023-06-24T07:18:23;10.90;;;4.80;;
74660;SDS011;63191;39.566;2.654;2023-06-24T07:20:49;11.20;;;4.90;;
74660;SDS011;63191;39.566;2.654;2023-06-24T07:23:15;9.90;;;4.40;;
74660;SDS011;63191;39.566;2.654;2023-06-24T07:25:41;10.40;;;4.90;;
74660;SDS011;63191;39.566;2.654;2023-06-24T07:28:06;9.10;;;4.60;;
74660;SDS011;63191;39.566;2.654;2023-06-24T07:30:32;10.80;;;5.00;;
74660;SDS011;63191;39.566;2.654;2023-06-24T07:32:58;7.90;;;4.40;;
74660;SDS011;63191;39.566;2.654;2023-06-24T07:35:24;11.20;;;6.00;;
74660;SDS011;63191;39.566;2.654;2023-06-24T07:37:49;9.70;;;4.10;;
74660;SDS011;63191;39.566;2.654;2023-06-24T07:40:15;9.50;;;4.30;;
74660;SDS011;63191;39.566;2.654;2023-06-24T07:42:41;8.80;;;4.50;;
74660;SDS011;63191;39.566;2.654;2023-06-24T07:45:07;8.20;;;4.00;;
74660;SDS011;63191;39.566;2.654;2023-06-24T07:47:33;9.60;;;5.10;;
74660;SDS011;63191;39.566;2.654;2023-06-24T07:49:59;10.20;;;4.70;;
74660;SDS011;63191;39.566;2.654;2023-06-24T07:52:24;8.20;;;4.80;;
74660;SDS011;63191;39.566;2.654;2023-06-24T07:54:50;10.00;;;5.00;;
74660;SDS011;63191;39.566;2.654;2023-06-24T07:57:16;11.10;;;5.30;;
74660;SDS011;63191;39.566;2.654;2023-06-24T07:59:42;10.20;;;5.30;;
74660;SDS011;63191;39.566;2.654;2023-06-24T08:02:08;11.40;;;5.10;;
74660;SDS011;63191;39.566;2.654;2023-06-24T08:04:34;10.00;;;5.20;;
74660;SDS011;63191;39.566;2.654;2023-06-24T08:06:59;11.00;;;5.50;;
74660;SDS011;63191;39.566;2.654;2023-06-24T08:09:25;9.00;;;4.60;;
74660;SDS011;63191;39.566;2.654;2023-06-24T08:11:51;11.50;;;6.20;;
74660;SDS011;63191;39.566;2.654;2023-06-24T08:14:16;7.90;;;4.60;;
74660;SDS011;63191;39.566;2.654;2023-06-24T08:16:42;10.80;;;5.00;;
74660;SDS011;63191;39.566;2.654;2023-06-24T08:19:08;10.50;;;5.00;;
74660;SDS011;63191;39.566;2.654;2023-06-24T08:21:33;8.30;;;4.50;;
74660;SDS011;63191;39.566;2.654;2023-06-24T08:24:00;10.50;;;4.90;;
74660;SDS011;63191;39.566;2.654;2023-06-24T08:26:25;12.40;;;5.70;;
74660;SDS011;63191;39.566;2.654;2023-06-24T08:28:51;9.80;;;4.80;;
74660;SDS011;63191;39.566;2.654;2023-06-24T08:31:16;10.60;;;5.10;;
74660;SDS011;63191;39.566;2.654;2023-06-24T08:33:45;8.10;;;4.40;;
74660;SDS011;63191;39.566;2.654;2023-06-24T08:36:11;11.20;;;4.90;;
74660;SDS011;63191;39.566;2.654;2023-06-24T08:38:37;8.80;;;4.90;;
74660;SDS011;63191;39.566;2.654;2023-06-24T08:41:04;9.80;;;4.80;;
74660;SDS011;63191;39.566;2.654;2023-06-24T08:43:29;9.90;;;5.00;;
74660;SDS011;63191;39.566;2.654;2023-06-24T08:45:55;9.70;;;5.10;;
74660;SDS011;63191;39.566;2.654;2023-06-24T08:48:21;12.40;;;4.90;;
74660;SDS011;63191;39.566;2.654;2023-06-24T08:50:51;10.50;;;4.60;;
74660;SDS011;63191;39.566;2.654;2023-06-24T08:53:18;9.10;;;4.40;;
74660;SDS011;63191;39.566;2.654;2023-06-24T08:55:46;9.10;;;4.40;;
74660;SDS011;63191;39.566;2.654;2023-06-24T08:58:12;9.60;;;4.40;;
74660;SDS011;63191;39.566;2.654;2023-06-24T09:00:39;9.90;;;4.30;;
74660;SDS011;63191;39.566;2.654;2023-06-24T09:03:06;10.90;;;4.20;;
74660;SDS011;63191;39.566;2.654;2023-06-24T09:05:32;7.10;;;3.80;;
74660;SDS011;63191;39.566;2.654;2023-06-24T09:07:58;7.70;;;3.90;;
74660;SDS011;63191;39.566;2.654;2023-06-24T09:10:33;9.30;;;4.30;;
74660;SDS011;63191;39.566;2.654;2023-06-24T09:13:01;7.30;;;3.80;;
74660;SDS011;63191;39.566;2.654;2023-06-24T09:15:36;7.30;;;4.30;;
74660;SDS011;63191;39.566;2.654;2023-06-24T09:18:03;9.20;;;4.50;;
74660;SDS011;63191;39.566;2.654;2023-06-24T09:20:31;9.50;;;4.30;;
74660;SDS011;63191;39.566;2.654;2023-06-24T09:22:59;8.30;;;3.90;;
74660;SDS011;63191;39.566;2.654;2023-06-24T09:25:25;8.20;;;5.50;;
74660;SDS011;63191;39.566;2.654;2023-06-24T09:27:51;10.50;;;5.90;;
74660;SDS011;63191;39.566;2.654;2023-06-24T09:30:22;9.20;;;7.10;;
74660;SDS011;63191;39.566;2.654;2023-06-24T09:32:48;11.80;;;6.00;;
74660;SDS011;63191;39.566;2.654;2023-06-24T09:35:18;8.50;;;5.90;;
74660;SDS011;63191;39.566;2.654;2023-06-24T09:37:52;11.90;;;6.30;;
74660;SDS011;63191;39.566;2.654;2023-06-24T09:40:19;9.10;;;4.90;;
74660;SDS011;63191;39.566;2.654;2023-06-24T09:42:56;12.00;;;5.60;;
74660;SDS011;63191;39.566;2.654;2023-06-24T09:45:26;7.80;;;4.10;;
74660;SDS011;63191;39.566;2.654;2023-06-24T09:47:54;7.90;;;4.40;;
74660;SDS011;63191;39.566;2.654;2023-06-24T09:50:21;9.00;;;4.70;;
74660;SDS011;63191;39.566;2.654;2023-06-24T09:52:49;10.20;;;4.50;;
74660;SDS011;63191;39.566;2.654;2023-06-24T09:55:17;9.20;;;4.80;;
74660;SDS011;63191;39.566;2.654;2023-06-24T09:57:50;7.30;;;4.40;;
74660;SDS011;63191;39.566;2.654;2023-06-24T10:00:18;9.80;;;5.20;;
74660;SDS011;63191;39.566;2.654;2023-06-24T10:02:45;8.50;;;4.20;;
74660;SDS011;63191;39.566;2.654;2023-06-24T10:05:13;6.90;;;4.00;;
74660;SDS011;63191;39.566;2.654;2023-06-24T10:07:40;7.40;;;4.20;;
74660;SDS011;63191;39.566;2.654;2023-06-24T10:10:07;8.00;;;4.00;;
74660;SDS011;63191;39.566;2.654;2023-06-24T10:12:38;6.80;;;3.40;;
74660;SDS011;63191;39.566;2.654;2023-06-24T10:15:05;6.50;;;3.40;;
74660;SDS011;63191;39.566;2.654;2023-06-24T10:17:31;5.80;;;3.00;;
74660;SDS011;63191;39.566;2.654;2023-06-24T10:19:57;7.30;;;3.40;;
74660;SDS011;63191;39.566;2.654;2023-06-24T10:22:23;7.30;;;3.30;;
74660;SDS011;63191;39.566;2.654;2023-06-24T10:24:51;7.30;;;3.30;;
74660;SDS011;63191;39.566;2.654;2023-06-24T10:27:20;6.50;;;3.10;;
74660;SDS011;63191;39.566;2.654;2023-06-24T10:29:51;7.40;;;3.70;;
74660;SDS011;63191;39.566;2.654;2023-06-24T10:32:19;7.10;;;3.40;;
74660;SDS011;63191;39.566;2.654;2023-06-24T10:34:54;7.10;;;3.30;;
74660;SDS011;63191;39.566;2.654;2023-06-24T10:37:25;8.40;;;3.60;;
74660;SDS011;63191;39.566;2.654;2023-06-24T10:39:59;7.40;;;2.90;;
74660;SDS011;63191;39.566;2.654;2023-06-24T10:42:39;6.50;;;3.20;;
74660;SDS011;63191;39.566;2.654;2023-06-24T10:47:35;9.40;;;3.40;;
74660;SDS011;63191;39.566;2.654;2023-06-24T10:50:13;7.10;;;3.00;;
74660;SDS011;63191;39.566;2.654;2023-06-24T10:52:44;7.00;;;2.70;;
74660;SDS011;63191;39.566;2.654;2023-06-24T10:55:16;6.80;;;3.10;;
74660;SDS011;63191;39.566;2.654;2023-06-24T10:57:43;6.50;;;3.10;;
74660;SDS011;63191;39.566;2.654;2023-06-24T11:00:14;10.70;;;3.70;;
74660;SDS011;63191;39.566;2.654;2023-06-24T11:02:41;7.20;;;3.10;;
74660;SDS011;63191;39.566;2.654;2023-06-24T11:05:07;7.00;;;3.40;;
74660;SDS011;63191;39.566;2.654;2023-06-24T11:07:35;8.10;;;3.20;;
74660;SDS011;63191;39.566;2.654;2023-06-24T11:10:04;10.60;;;4.20;;
74660;SDS011;63191;39.566;2.654;2023-06-24T11:12:36;7.30;;;3.30;;
74660;SDS011;63191;39.566;2.654;2023-06-24T11:15:05;7.60;;;3.40;;
74660;SDS011;63191;39.566;2.654;2023-06-24T11:17:36;7.40;;;3.10;;
74660;SDS011;63191;39.566;2.654;2023-06-24T11:20:07;7.50;;;3.30;;
74660;SDS011;63191;39.566;2.654;2023-06-24T11:22:37;7.50;;;3.30;;
74660;SDS011;63191;39.566;2.654;2023-06-24T11:25:03;7.70;;;3.30;;
74660;SDS011;63191;39.566;2.654;2023-06-24T11:27:30;7.40;;;3.10;;
74660;SDS011;63191;39.566;2.654;2023-06-24T11:30:00;6.30;;;2.80;;
74660;SDS011;63191;39.566;2.654;2023-06-24T11:32:40;7.10;;;2.90;;
74660;SDS011;63191;39.566;2.654;2023-06-24T11:35:09;8.40;;;2.90;;
74660;SDS011;63191;39.566;2.654;2023-06-24T11:37:35;6.00;;;3.20;;
74660;SDS011;63191;39.566;2.654;2023-06-24T11:40:06;7.70;;;3.10;;
74660;SDS011;63191;39.566;2.654;2023-06-24T11:42:37;6.30;;;3.10;;
74660;SDS011;63191;39.566;2.654;2023-06-24T11:45:09;5.90;;;2.90;;
74660;SDS011;63191;39.566;2.654;2023-06-24T11:47:39;7.30;;;2.90;;
74660;SDS011;63191;39.566;2.654;2023-06-24T11:50:07;7.30;;;3.00;;
74660;SDS011;63191;39.566;2.654;2023-06-24T11:55:32;7.00;;;3.20;;
74660;SDS011;63191;39.566;2.654;2023-06-24T11:58:02;6.40;;;3.20;;
74660;SDS011;63191;39.566;2.654;2023-06-24T12:00:35;6.70;;;3.30;;
74660;SDS011;63191;39.566;2.654;2023-06-24T12:03:04;6.30;;;3.10;;
74660;SDS011;63191;39.566;2.654;2023-06-24T12:05:33;6.80;;;3.20;;
74660;SDS011;63191;39.566;2.654;2023-06-24T12:08:01;5.90;;;3.00;;
74660;SDS011;63191;39.566;2.654;2023-06-24T12:10:32;6.20;;;3.10;;
74660;SDS011;63191;39.566;2.654;2023-06-24T12:12:59;6.50;;;3.50;;
74660;SDS011;63191;39.566;2.654;2023-06-24T12:15:26;6.10;;;3.70;;
74660;SDS011;63191;39.566;2.654;2023-06-24T12:17:53;6.10;;;3.20;;
74660;SDS011;63191;39.566;2.654;2023-06-24T12:20:18;6.90;;;3.80;;
74660;SDS011;63191;39.566;2.654;2023-06-24T12:22:46;6.10;;;3.20;;
74660;SDS011;63191;39.566;2.654;2023-06-24T12:25:13;7.40;;;3.60;;
74660;SDS011;63191;39.566;2.654;2023-06-24T12:27:39;6.40;;;3.70;;
74660;SDS011;63191;39.566;2.654;2023-06-24T12:30:07;6.10;;;2.80;;
74660;SDS011;63191;39.566;2.654;2023-06-24T12:32:34;6.80;;;3.10;;
74660;SDS011;63191;39.566;2.654;2023-06-24T12:35:00;6.50;;;3.40;;
74660;SDS011;63191;39.566;2.654;2023-06-24T12:37:32;7.40;;;3.30;;
74660;SDS011;63191;39.566;2.654;2023-06-24T12:40:02;6.00;;;3.30;;
74660;SDS011;63191;39.566;2.654;2023-06-24T12:42:28;8.60;;;3.00;;
74660;SDS011;63191;39.566;2.654;2023-06-24T12:44:54;6.80;;;3.40;;
74660;SDS011;63191;39.566;2.654;2023-06-24T12:47:21;7.60;;;3.20;;
74660;SDS011;63191;39.566;2.654;2023-06-24T12:49:48;6.00;;;3.00;;
74660;SDS011;63191;39.566;2.654;2023-06-24T12:52:15;6.30;;;3.60;;
74660;SDS011;63191;39.566;2.654;2023-06-24T12:54:41;6.80;;;3.20;;
74660;SDS011;63191;39.566;2.654;2023-06-24T12:57:06;7.40;;;3.30;;
74660;SDS011;63191;39.566;2.654;2023-06-24T12:59:32;5.90;;;3.20;;
74660;SDS011;63191;39.566;2.654;2023-06-24T13:01:58;7.20;;;3.50;;
74660;SDS011;63191;39.566;2.654;2023-06-24T13:04:24;6.20;;;3.00;;
74660;SDS011;63191;39.566;2.654;2023-06-24T13:06:53;6.10;;;2.70;;
74660;SDS011;63191;39.566;2.654;2023-06-24T13:09:19;6.00;;;3.40;;
74660;SDS011;63191;39.566;2.654;2023-06-24T13:11:46;6.80;;;3.00;;
74660;SDS011;63191;39.566;2.654;2023-06-24T13:14:12;6.80;;;3.10;;
74660;SDS011;63191;39.566;2.654;2023-06-24T13:16:39;6.40;;;2.90;;
74660;SDS011;63191;39.566;2.654;2023-06-24T13:19:05;6.40;;;3.40;;
74660;SDS011;63191;39.566;2.654;2023-06-24T13:21:31;8.10;;;3.50;;
74660;SDS011;63191;39.566;2.654;2023-06-24T13:23:56;6.90;;;3.30;;
74660;SDS011;63191;39.566;2.654;2023-06-24T13:26:22;6.50;;;3.20;;
74660;SDS011;63191;39.566;2.654;2023-06-24T13:28:49;6.70;;;3.00;;
74660;SDS011;63191;39.566;2.654;2023-06-24T13:31:15;7.00;;;2.90;;
74660;SDS011;63191;39.566;2.654;2023-06-24T13:33:41;7.10;;;3.40;;
74660;SDS011;63191;39.566;2.654;2023-06-24T13:36:10;6.10;;;3.10;;
74660;SDS011;63191;39.566;2.654;2023-06-24T13:38:50;7.10;;;2.60;;
74660;SDS011;63191;39.566;2.654;2023-06-24T13:41:16;6.00;;;2.80;;
74660;SDS011;63191;39.566;2.654;2023-06-24T13:43:42;6.40;;;3.10;;
74660;SDS011;63191;39.566;2.654;2023-06-24T13:46:07;8.00;;;3.10;;
74660;SDS011;63191;39.566;2.654;2023-06-24T13:48:33;6.80;;;3.40;;
74660;SDS011;63191;39.566;2.654;2023-06-24T13:50:59;7.20;;;4.00;;
74660;SDS011;63191;39.566;2.654;2023-06-24T13:53:24;6.20;;;4.10;;
74660;SDS011;63191;39.566;2.654;2023-06-24T13:55:50;6.70;;;4.40;;
74660;SDS011;63191;39.566;2.654;2023-06-24T13:58:16;7.00;;;5.00;;
74660;SDS011;63191;39.566;2.654;2023-06-24T14:00:41;6.80;;;5.70;;
74660;SDS011;63191;39.566;2.654;2023-06-24T14:03:07;7.40;;;6.50;;
74660;SDS011;63191;39.566;2.654;2023-06-24T14:05:33;7.90;;;7.10;;
74660;SDS011;63191;39.566;2.654;2023-06-24T14:07:59;8.90;;;8.00;;
74660;SDS011;63191;39.566;2.654;2023-06-24T14:10:24;11.50;;;7.90;;
74660;SDS011;63191;39.566;2.654;2023-06-24T14:12:50;9.10;;;8.20;;
74660;SDS011;63191;39.566;2.654;2023-06-24T14:15:16;9.10;;;8.10;;
74660;SDS011;63191;39.566;2.654;2023-06-24T14:17:41;8.80;;;8.00;;
74660;SDS011;63191;39.566;2.654;2023-06-24T14:20:08;8.70;;;7.20;;
74660;SDS011;63191;39.566;2.654;2023-06-24T14:22:34;9.60;;;6.70;;
74660;SDS011;63191;39.566;2.654;2023-06-24T14:25:00;6.90;;;5.80;;
74660;SDS011;63191;39.566;2.654;2023-06-24T14:27:25;8.00;;;5.60;;
74660;SDS011;63191;39.566;2.654;2023-06-24T14:29:51;8.30;;;5.30;;
74660;SDS011;63191;39.566;2.654;2023-06-24T14:32:17;6.60;;;5.00;;
74660;SDS011;63191;39.566;2.654;2023-06-24T14:34:42;6.80;;;4.50;;
74660;SDS011;63191;39.566;2.654;2023-06-24T14:37:08;7.00;;;4.60;;
74660;SDS011;63191;39.566;2.654;2023-06-24T14:39:34;6.10;;;3.80;;
74660;SDS011;63191;39.566;2.654;2023-06-24T14:41:59;7.80;;;4.20;;
74660;SDS011;63191;39.566;2.654;2023-06-24T14:44:25;6.10;;;3.40;;
74660;SDS011;63191;39.566;2.654;2023-06-24T14:46:51;7.80;;;3.50;;
74660;SDS011;63191;39.566;2.654;2023-06-24T14:49:16;6.60;;;3.30;;
74660;SDS011;63191;39.566;2.654;2023-06-24T14:51:42;6.20;;;3.40;;
74660;SDS011;63191;39.566;2.654;2023-06-24T14:54:08;6.90;;;3.50;;